createdAt,value
2023-04-16T00:00:11.622Z,58.37
2023-04-16T00:02:39.836Z,58.50
2023-04-16T00:05:09.016Z,59.11
2023-04-16T00:07:36.857Z,58.83
2023-04-16T00:10:05.388Z,59.33
2023-04-16T00:12:34.828Z,59.29
2023-04-16T00:15:02.677Z,59.92
2023-04-16T00:17:30.611Z,59.64
2023-04-16T00:19:58.591Z,59.73
2023-04-16T00:22:26.687Z,60.66
2023-04-16T00:24:54.633Z,60.42
2023-04-16T00:27:22.470Z,60.82
2023-04-16T00:29:51.820Z,61.13
2023-04-16T00:32:19.783Z,60.97
2023-04-16T00:34:47.635Z,61.63
2023-04-16T00:37:15.520Z,61.74
2023-04-16T00:39:43.457Z,62.08
2023-04-16T00:42:11.397Z,62.42
2023-04-16T00:44:39.523Z,62.58
2023-04-16T00:47:09.241Z,62.42
2023-04-16T00:49:37.468Z,63.06
2023-04-16T00:52:05.703Z,63.26
2023-04-16T00:54:33.920Z,63.39
2023-04-16T00:57:01.751Z,63.42
2023-04-16T00:59:30.478Z,64.09
2023-04-16T01:01:58.577Z,63.57
2023-04-16T01:04:29.819Z,64.38
2023-04-16T01:06:57.874Z,64.11
2023-04-16T01:09:25.801Z,64.42
2023-04-16T01:11:53.639Z,64.50
2023-04-16T01:14:21.539Z,64.40
2023-04-16T01:16:49.481Z,64.73
2023-04-16T01:19:17.326Z,64.92
2023-04-16T01:21:46.746Z,65.20
2023-04-16T01:24:14.778Z,65.26
2023-04-16T01:26:42.586Z,65.25
2023-04-16T01:29:10.774Z,65.70
2023-04-16T01:31:38.924Z,65.53
2023-04-16T01:34:06.859Z,65.84
2023-04-16T01:36:34.848Z,66.18
2023-04-16T01:39:04.505Z,65.91
2023-04-16T01:41:33.014Z,66.23
2023-04-16T01:44:01.021Z,66.62
2023-04-16T01:46:30.713Z,66.90
2023-04-16T01:48:58.903Z,67.34
2023-04-16T01:51:27.344Z,66.84
2023-04-16T01:53:56.077Z,66.99
2023-04-16T01:56:25.294Z,67.61
2023-04-16T01:58:53.700Z,67.95
2023-04-16T02:01:22.053Z,67.46
2023-04-16T02:03:50.235Z,67.88
2023-04-16T02:06:18.192Z,68.24
2023-04-16T02:08:46.275Z,68.13
2023-04-16T02:11:14.108Z,68.13
2023-04-16T02:13:43.430Z,68.15
2023-04-16T02:16:11.601Z,68.95
2023-04-16T02:18:39.451Z,68.40
2023-04-16T02:21:07.904Z,68.74
2023-04-16T02:23:36.128Z,69.35
2023-04-16T02:26:04.761Z,69.66
2023-04-16T02:28:32.665Z,69.14
2023-04-16T02:31:02.079Z,69.86
2023-04-16T02:33:31.925Z,69.79
2023-04-16T02:36:00.127Z,69.70
2023-04-16T02:38:28.109Z,69.74
2023-04-16T02:40:55.935Z,70.23
2023-04-16T02:43:23.948Z,70.48
2023-04-16T02:45:51.957Z,69.88
2023-04-16T02:48:21.177Z,70.56
2023-04-16T02:50:49.076Z,70.58
2023-04-16T02:53:17.094Z,70.35
2023-04-16T02:55:52.538Z,70.88
2023-04-16T02:58:20.992Z,70.90
2023-04-16T03:00:48.829Z,71.07
2023-04-16T03:03:16.693Z,71.41
2023-04-16T03:05:46.740Z,71.53
2023-04-16T03:08:14.583Z,71.19
2023-04-16T03:10:42.497Z,71.68
2023-04-16T03:13:10.687Z,71.75
2023-04-16T03:15:38.560Z,71.63
2023-04-16T03:18:06.444Z,71.74
2023-04-16T03:20:34.820Z,72.09
2023-04-16T03:23:04.004Z,72.07
2023-04-16T03:25:31.898Z,71.99
2023-04-16T03:27:59.844Z,72.39
2023-04-16T03:30:27.744Z,72.80
2023-04-16T03:32:55.828Z,72.68
2023-04-16T03:35:23.800Z,73.02
2023-04-16T03:37:51.824Z,73.05
2023-04-16T03:40:21.132Z,73.15
2023-04-16T03:42:51.459Z,73.47
2023-04-16T03:45:19.344Z,73.18
2023-04-16T03:47:52.610Z,73.60
2023-04-16T03:50:20.958Z,73.55
2023-04-16T03:52:49.506Z,73.47
2023-04-16T03:55:17.641Z,73.95
2023-04-16T03:57:46.836Z,74.13
2023-04-16T04:00:15.324Z,73.79
2023-04-16T04:02:43.432Z,73.84
2023-04-16T04:05:11.460Z,73.97
2023-04-16T04:07:39.614Z,74.46
2023-04-16T04:10:09.244Z,74.65
2023-04-16T04:12:37.119Z,74.82
2023-04-16T04:15:07.692Z,74.98
2023-04-16T04:17:35.771Z,74.62
2023-04-16T04:20:03.721Z,75.08
2023-04-16T04:22:31.864Z,75.01
2023-04-16T04:24:59.818Z,74.96
2023-04-16T04:27:27.732Z,75.71
2023-04-16T04:29:55.651Z,75.21
2023-04-16T04:32:25.074Z,75.24
2023-04-16T04:34:53.014Z,75.84
2023-04-16T04:37:21.130Z,75.49
2023-04-16T04:39:49.150Z,75.70
2023-04-16T04:42:19.988Z,76.05
2023-04-16T04:44:48.271Z,75.93
2023-04-16T04:47:16.804Z,76.21
2023-04-16T04:49:46.012Z,76.56
2023-04-16T04:52:14.278Z,75.96
2023-04-16T04:54:42.312Z,76.14
2023-04-16T04:57:10.204Z,76.09
2023-04-16T04:59:38.236Z,76.40
2023-04-16T05:02:06.414Z,76.60
2023-04-16T05:04:34.403Z,76.57
2023-04-16T05:07:03.791Z,76.55
2023-04-16T05:09:31.821Z,76.37
2023-04-16T05:11:59.653Z,76.67
2023-04-16T05:14:27.558Z,76.65
2023-04-16T05:16:55.652Z,77.03
2023-04-16T05:19:23.554Z,76.40
2023-04-16T05:21:51.620Z,77.08
2023-04-16T05:24:21.076Z,76.79
2023-04-16T05:26:48.880Z,76.21
2023-04-16T05:29:16.791Z,76.95
2023-04-16T05:31:44.706Z,76.36
2023-04-16T05:34:12.573Z,76.17
2023-04-16T05:36:40.698Z,76.13
2023-04-16T05:39:09.020Z,75.92
2023-04-16T05:41:38.454Z,75.88
2023-04-16T05:44:06.740Z,76.33
2023-04-16T05:46:34.937Z,75.72
2023-04-16T05:49:02.891Z,75.87
2023-04-16T05:51:32.228Z,75.88
2023-04-16T05:54:00.440Z,75.79
2023-04-16T05:56:28.330Z,75.00
2023-04-16T05:58:57.707Z,75.20
2023-04-16T06:01:26.798Z,75.18
2023-04-16T06:03:54.866Z,75.08
2023-04-16T06:06:22.989Z,74.43
2023-04-16T06:08:50.923Z,74.66
2023-04-16T06:11:18.928Z,74.52
2023-04-16T06:13:46.863Z,74.24
2023-04-16T06:16:16.184Z,74.00
2023-04-16T06:18:44.089Z,73.31
2023-04-16T06:21:12.126Z,73.51
2023-04-16T06:23:39.976Z,73.18
2023-04-16T06:26:07.971Z,72.79
2023-04-16T06:28:35.883Z,72.64
2023-04-16T06:31:03.791Z,72.03
2023-04-16T06:33:33.278Z,71.93
2023-04-16T06:36:01.305Z,71.33
2023-04-16T06:38:29.167Z,71.51
2023-04-16T06:40:57.190Z,71.16
2023-04-16T06:43:25.253Z,70.33
2023-04-16T06:45:53.101Z,70.61
2023-04-16T06:48:20.998Z,69.98
2023-04-16T06:50:50.331Z,69.86
2023-04-16T06:53:18.182Z,69.31
2023-04-16T06:55:47.199Z,69.46
2023-04-16T06:58:15.150Z,70.73
2023-04-16T07:00:43.052Z,72.31
2023-04-16T07:03:11.060Z,70.38
2023-04-16T07:05:39.246Z,71.04
2023-04-16T07:08:08.659Z,70.73
2023-04-16T07:10:36.743Z,68.91
2023-04-16T07:13:04.722Z,67.41
2023-04-16T07:15:32.540Z,65.20
2023-04-16T07:18:00.570Z,62.86
2023-04-16T07:20:28.854Z,60.90
2023-04-16T07:22:56.761Z,59.05
2023-04-16T07:25:26.992Z,57.74
2023-04-16T07:27:54.936Z,56.58
2023-04-16T07:30:22.768Z,55.29
2023-04-16T07:32:51.922Z,53.54
2023-04-16T07:35:20.076Z,52.80
2023-04-16T07:37:47.900Z,51.51
2023-04-16T07:40:16.217Z,50.44
2023-04-16T07:42:45.918Z,48.94
2023-04-16T07:45:14.062Z,48.28
2023-04-16T07:47:42.057Z,47.29
2023-04-16T07:50:11.023Z,46.21
2023-04-16T07:52:41.342Z,45.58
2023-04-16T07:55:09.718Z,44.88
2023-04-16T07:57:38.081Z,43.84
2023-04-16T08:00:09.069Z,43.24
2023-04-16T08:02:37.841Z,42.95
2023-04-16T08:05:06.491Z,42.67
2023-04-16T08:07:34.891Z,41.97
2023-04-16T08:10:03.436Z,41.59
2023-04-16T08:12:31.500Z,41.42
2023-04-16T08:14:59.358Z,41.11
2023-04-16T08:17:29.758Z,40.24
2023-04-16T08:19:57.810Z,39.96
2023-04-16T08:22:26.406Z,39.66
2023-04-16T08:24:54.510Z,39.51
2023-04-16T08:27:22.483Z,39.01
2023-04-16T08:29:50.358Z,38.70
2023-04-16T08:32:18.503Z,38.25
2023-04-16T08:34:48.077Z,37.77
2023-04-16T08:37:15.982Z,37.46
2023-04-16T08:39:43.965Z,37.23
2023-04-16T08:42:15.388Z,36.63
2023-04-16T08:44:49.242Z,36.45
2023-04-16T08:47:17.918Z,36.81
2023-04-16T08:49:47.307Z,36.40
2023-04-16T08:52:20.455Z,35.95
2023-04-16T08:54:56.761Z,36.14
2023-04-16T08:57:28.922Z,36.00
2023-04-16T08:59:58.825Z,35.67
2023-04-16T09:02:27.549Z,35.41
2023-04-16T09:05:01.054Z,34.89
2023-04-16T09:07:30.917Z,34.77
2023-04-16T09:10:01.518Z,34.37
2023-04-16T09:12:29.499Z,34.23
2023-04-16T09:14:59.802Z,33.94
2023-04-16T09:17:28.461Z,33.43
2023-04-16T09:19:57.912Z,32.80
2023-04-16T09:22:25.921Z,32.47
2023-04-16T09:24:53.834Z,32.32
2023-04-16T09:27:25.467Z,31.96
2023-04-16T09:29:54.117Z,31.90
2023-04-16T09:32:27.763Z,30.97
2023-04-16T09:34:59.483Z,31.21
2023-04-16T09:37:29.859Z,31.21
2023-04-16T09:39:59.183Z,31.17
2023-04-16T09:42:28.891Z,30.97
2023-04-16T09:45:00.334Z,30.50
2023-04-16T09:47:41.285Z,29.74
2023-04-16T09:50:17.720Z,29.70
2023-04-16T09:52:50.045Z,30.09
2023-04-16T09:55:19.286Z,29.88
2023-04-16T09:57:47.163Z,29.75
2023-04-16T10:00:19.891Z,28.85
2023-04-16T10:02:50.038Z,29.16
2023-04-16T10:05:21.455Z,28.76
2023-04-16T10:07:49.952Z,28.82
2023-04-16T10:10:18.207Z,28.74
2023-04-16T10:12:47.416Z,28.44
2023-04-16T10:15:15.373Z,28.37
2023-04-16T10:17:44.503Z,28.41
2023-04-16T10:20:12.818Z,28.09
2023-04-16T10:22:43.061Z,28.26
2023-04-16T10:25:11.528Z,28.32
2023-04-16T10:27:40.777Z,28.01
2023-04-16T10:30:12.669Z,27.87
2023-04-16T10:32:42.039Z,27.94
2023-04-16T10:35:10.726Z,27.80
2023-04-16T10:37:39.179Z,27.75
2023-04-16T10:40:27.245Z,27.60
2023-04-16T10:42:56.755Z,27.63
2023-04-16T10:45:30.716Z,27.12
2023-04-16T10:47:58.997Z,27.24
2023-04-16T10:50:36.119Z,26.56
2023-04-16T10:53:20.080Z,26.70
2023-04-16T10:56:14.269Z,26.47
2023-04-16T10:58:42.535Z,26.89
2023-04-16T11:01:14.638Z,26.61
2023-04-16T11:03:46.316Z,26.73
2023-04-16T11:06:17.055Z,26.60
2023-04-16T11:08:54.610Z,26.32
2023-04-16T11:11:24.978Z,26.38
2023-04-16T11:13:57.481Z,26.31
2023-04-16T11:16:26.180Z,26.21
2023-04-16T11:18:56.692Z,26.16
2023-04-16T11:21:25.492Z,26.04
2023-04-16T11:23:54.578Z,25.80
2023-04-16T11:26:26.852Z,25.54
2023-04-16T11:28:56.275Z,25.46
2023-04-16T11:31:24.519Z,25.37
2023-04-16T11:33:54.130Z,25.43
2023-04-16T11:36:22.215Z,25.35
2023-04-16T11:38:50.096Z,24.96
2023-04-16T11:41:22.926Z,24.43
2023-04-16T11:43:52.272Z,24.23
2023-04-16T11:46:27.386Z,24.35
2023-04-16T11:48:56.800Z,24.27
2023-04-16T11:51:24.783Z,23.86
2023-04-16T11:53:55.321Z,23.95
2023-04-16T11:56:28.733Z,23.89
2023-04-16T11:59:12.108Z,23.25
2023-04-16T12:01:42.140Z,23.81
2023-04-16T12:04:10.645Z,23.53
2023-04-16T12:06:38.676Z,23.72
2023-04-16T12:09:25.108Z,22.80
2023-04-16T12:11:53.029Z,22.71
2023-04-16T12:14:22.568Z,22.38
2023-04-16T12:16:50.847Z,22.56
2023-04-16T12:19:19.225Z,22.03
2023-04-16T12:21:49.975Z,21.68
2023-04-16T12:24:20.841Z,21.57
2023-04-16T12:26:56.099Z,21.01
2023-04-16T12:29:28.835Z,20.91
2023-04-16T12:32:00.178Z,20.68
2023-04-16T12:34:47.940Z,20.38
2023-04-16T12:37:16.931Z,20.75
2023-04-16T12:39:46.341Z,20.81
2023-04-16T12:42:16.078Z,20.51
2023-04-16T12:44:45.841Z,20.42
2023-04-16T12:47:13.800Z,20.43
2023-04-16T12:49:41.634Z,20.65
2023-04-16T12:52:09.783Z,20.76
2023-04-16T12:54:37.628Z,20.42
2023-04-16T12:57:05.607Z,20.42
2023-04-16T12:59:33.847Z,20.25
2023-04-16T13:02:03.763Z,19.89
2023-04-16T13:04:32.011Z,19.64
2023-04-16T13:07:00.776Z,18.93
2023-04-16T13:09:31.939Z,19.50
2023-04-16T13:11:59.757Z,19.18
2023-04-16T13:14:27.888Z,18.90
2023-04-16T13:16:55.848Z,18.87
2023-04-16T13:19:25.065Z,18.60
2023-04-16T13:21:53.083Z,18.14
2023-04-16T13:24:21.080Z,18.46
2023-04-16T13:26:48.890Z,18.71
2023-04-16T13:29:16.886Z,18.58
2023-04-16T13:31:44.885Z,18.49
2023-04-16T13:34:12.784Z,18.84
2023-04-16T13:36:42.168Z,18.34
2023-04-16T13:39:11.597Z,18.80
2023-04-16T13:41:39.756Z,18.58
2023-04-16T13:44:07.992Z,18.01
2023-04-16T13:46:35.944Z,17.78
2023-04-16T13:49:03.988Z,17.61
2023-04-16T13:51:32.267Z,17.51
2023-04-16T13:54:01.544Z,17.40
2023-04-16T13:56:29.471Z,17.21
2023-04-16T13:58:57.520Z,17.24
2023-04-16T14:01:25.435Z,17.33
2023-04-16T14:03:53.711Z,17.35
2023-04-16T14:06:21.803Z,17.40
2023-04-16T14:08:49.640Z,18.01
2023-04-16T14:11:18.840Z,17.42
2023-04-16T14:13:46.983Z,17.80
2023-04-16T14:16:15.759Z,17.97
2023-04-16T14:18:43.648Z,17.74
2023-04-16T14:21:11.977Z,18.18
2023-04-16T14:23:39.838Z,17.85
2023-04-16T14:26:07.674Z,18.00
2023-04-16T14:28:37.336Z,18.09
2023-04-16T14:31:05.256Z,17.92
2023-04-16T14:33:33.406Z,17.62
2023-04-16T14:36:03.238Z,17.32
2023-04-16T14:38:32.056Z,17.46
2023-04-16T14:41:00.634Z,17.02
2023-04-16T14:43:28.961Z,17.39
2023-04-16T14:45:58.632Z,16.89
2023-04-16T14:48:26.590Z,17.17
2023-04-16T14:50:55.032Z,17.01
2023-04-16T14:53:24.533Z,17.19
2023-04-16T14:55:53.416Z,17.16
2023-04-16T14:58:22.077Z,17.05
2023-04-16T15:00:52.055Z,16.76
2023-04-16T15:03:21.689Z,16.65
2023-04-16T15:05:55.821Z,17.14
2023-04-16T15:08:23.928Z,17.99
2023-04-16T15:10:52.171Z,18.27
2023-04-16T15:13:20.577Z,18.60
2023-04-16T15:15:48.791Z,18.91
2023-04-16T15:18:17.485Z,19.08
2023-04-16T15:20:46.916Z,18.72
2023-04-16T15:23:14.804Z,18.90
2023-04-16T15:25:42.771Z,18.72
2023-04-16T15:28:10.682Z,19.26
2023-04-16T15:30:39.816Z,19.25
2023-04-16T15:33:08.025Z,18.95
2023-04-16T15:35:36.783Z,18.93
2023-04-16T15:38:06.088Z,18.62
2023-04-16T15:40:34.121Z,18.48
2023-04-16T15:43:02.172Z,18.84
2023-04-16T15:45:30.250Z,19.30
2023-04-16T15:47:58.244Z,19.55
2023-04-16T15:50:27.058Z,19.72
2023-04-16T15:52:55.036Z,20.10
2023-04-16T15:55:24.364Z,20.49
2023-04-16T15:57:52.922Z,20.85
2023-04-16T16:00:21.732Z,21.24
2023-04-16T16:02:49.840Z,21.51
2023-04-16T16:05:18.120Z,21.61
2023-04-16T16:07:46.460Z,21.51
2023-04-16T16:10:14.565Z,21.38
2023-04-16T16:12:45.140Z,21.80
2023-04-16T16:15:13.067Z,21.86
2023-04-16T16:17:41.393Z,22.00
2023-04-16T16:20:10.833Z,21.91
2023-04-16T16:22:39.209Z,21.79
2023-04-16T16:25:08.230Z,21.57
2023-04-16T16:27:36.670Z,21.58
2023-04-16T16:30:07.578Z,21.57
2023-04-16T16:32:35.998Z,21.77
2023-04-16T16:35:04.514Z,21.63
2023-04-16T16:37:32.407Z,21.83
2023-04-16T16:40:00.684Z,21.95
2023-04-16T16:42:28.769Z,22.34
2023-04-16T16:44:57.593Z,22.63
2023-04-16T16:47:30.509Z,22.96
2023-04-16T16:49:58.870Z,23.03
2023-04-16T16:52:28.130Z,23.44
2023-04-16T16:54:56.806Z,23.71
2023-04-16T16:57:25.058Z,24.06
2023-04-16T16:59:54.373Z,24.49
2023-04-16T17:02:22.955Z,25.22
2023-04-16T17:04:52.840Z,25.91
2023-04-16T17:07:20.957Z,26.15
2023-04-16T17:09:48.996Z,26.55
2023-04-16T17:12:16.841Z,26.97
2023-04-16T17:14:45.958Z,27.18
2023-04-16T17:17:13.857Z,27.38
2023-04-16T17:19:41.771Z,27.56
2023-04-16T17:22:11.354Z,28.44
2023-04-16T17:24:39.407Z,28.83
2023-04-16T17:27:07.251Z,29.18
2023-04-16T17:29:35.147Z,29.61
2023-04-16T17:32:04.934Z,30.04
2023-04-16T17:34:32.794Z,30.25
2023-04-16T17:37:00.883Z,30.57
2023-04-16T17:39:30.404Z,31.15
2023-04-16T17:41:58.689Z,31.59
2023-04-16T17:44:28.052Z,31.50
2023-04-16T17:46:56.012Z,31.67
2023-04-16T17:49:23.910Z,31.98
2023-04-16T17:51:52.017Z,32.08
2023-04-16T17:54:19.935Z,32.21
2023-04-16T17:56:49.214Z,32.50
2023-04-16T17:59:17.252Z,32.66
2023-04-16T18:01:45.545Z,32.72
2023-04-16T18:04:13.621Z,32.91
2023-04-16T18:06:42.002Z,33.21
2023-04-16T18:09:09.847Z,33.41
2023-04-16T18:11:37.693Z,33.86
2023-04-16T18:14:09.829Z,33.96
2023-04-16T18:16:38.098Z,33.73
2023-04-16T18:19:06.577Z,34.02
2023-04-16T18:21:35.485Z,34.44
2023-04-16T18:24:03.588Z,34.47
2023-04-16T18:26:35.687Z,34.86
2023-04-16T18:29:04.264Z,34.73
2023-04-16T18:31:33.579Z,35.47
2023-04-16T18:34:01.532Z,35.68
2023-04-16T18:36:30.084Z,35.72
2023-04-16T18:39:02.100Z,36.12
2023-04-16T18:41:30.964Z,36.02
2023-04-16T18:43:58.924Z,36.12
2023-04-16T18:46:27.534Z,36.44
2023-04-16T18:48:59.653Z,36.45
2023-04-16T18:51:27.582Z,36.79
2023-04-16T18:53:55.458Z,36.62
2023-04-16T18:56:23.522Z,36.94
2023-04-16T18:58:51.454Z,36.97
2023-04-16T19:01:19.375Z,36.72
2023-04-16T19:03:47.486Z,36.98
2023-04-16T19:06:16.869Z,37.35
2023-04-16T19:08:44.833Z,36.96
2023-04-16T19:11:12.994Z,37.16
2023-04-16T19:13:40.795Z,37.51
2023-04-16T19:16:11.645Z,37.58
2023-04-16T19:18:39.904Z,37.86
2023-04-16T19:21:10.041Z,37.79
2023-04-16T19:23:39.311Z,38.16
2023-04-16T19:26:07.177Z,37.88
2023-04-16T19:28:35.059Z,38.29
2023-04-16T19:31:03.121Z,38.42
2023-04-16T19:33:31.414Z,38.87
2023-04-16T19:36:00.258Z,38.45
2023-04-16T19:38:31.018Z,39.07
2023-04-16T19:41:00.320Z,39.54
2023-04-16T19:43:30.724Z,39.05
2023-04-16T19:45:59.081Z,39.38
2023-04-16T19:48:27.004Z,39.66
2023-04-16T19:50:54.820Z,39.58
2023-04-16T19:53:22.780Z,39.83
2023-04-16T19:55:50.707Z,39.85
2023-04-16T19:58:19.927Z,40.51
2023-04-16T20:00:47.873Z,40.60
2023-04-16T20:03:15.905Z,39.96
2023-04-16T20:05:43.758Z,40.60
2023-04-16T20:08:11.679Z,40.60
2023-04-16T20:10:39.564Z,41.15
2023-04-16T20:13:11.881Z,40.96
2023-04-16T20:15:41.429Z,41.28
2023-04-16T20:18:12.789Z,41.35
2023-04-16T20:20:41.540Z,41.31
2023-04-16T20:23:09.405Z,42.05
2023-04-16T20:25:42.052Z,41.99
2023-04-16T20:28:10.075Z,42.23
2023-04-16T20:30:39.526Z,42.29
2023-04-16T20:33:09.700Z,42.75
2023-04-16T20:35:38.134Z,42.50
2023-04-16T20:38:06.027Z,42.08
2023-04-16T20:40:34.186Z,42.74
2023-04-16T20:43:02.008Z,42.88
2023-04-16T20:45:32.515Z,43.06
2023-04-16T20:48:00.559Z,43.08
2023-04-16T20:50:29.817Z,42.71
2023-04-16T20:52:58.356Z,42.71
2023-04-16T20:55:26.981Z,43.11
2023-04-16T20:57:54.925Z,43.04
2023-04-16T21:00:23.227Z,42.88
2023-04-16T21:02:53.677Z,43.06
2023-04-16T21:05:21.825Z,43.20
2023-04-16T21:07:51.014Z,43.95
2023-04-16T21:10:20.369Z,43.38
2023-04-16T21:12:48.393Z,43.58
2023-04-16T21:15:16.475Z,44.09
2023-04-16T21:17:44.502Z,43.50
2023-04-16T21:20:14.067Z,44.03
2023-04-16T21:22:42.054Z,43.77
2023-04-16T21:25:11.767Z,43.76
2023-04-16T21:27:39.616Z,43.83
2023-04-16T21:30:09.395Z,43.67
2023-04-16T21:32:37.465Z,43.68
2023-04-16T21:35:06.098Z,43.76
2023-04-16T21:37:34.297Z,43.87
2023-04-16T21:40:02.396Z,44.04
2023-04-16T21:42:32.633Z,44.16
2023-04-16T21:45:00.967Z,44.25
2023-04-16T21:47:28.974Z,44.25
2023-04-16T21:49:56.848Z,44.50
2023-04-16T21:52:24.804Z,44.45
2023-04-16T21:54:52.843Z,44.68
2023-04-16T21:57:20.717Z,44.34
2023-04-16T21:59:50.243Z,44.58
2023-04-16T22:02:18.384Z,44.43
2023-04-16T22:04:46.389Z,44.45
2023-04-16T22:07:16.986Z,44.73
2023-04-16T22:09:45.035Z,44.69
2023-04-16T22:12:12.895Z,44.62
2023-04-16T22:14:49.199Z,44.79
2023-04-16T22:17:29.466Z,44.83
2023-04-16T22:20:00.780Z,45.08
2023-04-16T22:22:28.844Z,45.11
2023-04-16T22:24:56.812Z,45.13
2023-04-16T22:27:24.919Z,45.44
2023-04-16T22:29:52.850Z,45.58
2023-04-16T22:32:20.857Z,45.31
2023-04-16T22:34:50.664Z,45.36
2023-04-16T22:37:18.796Z,45.59
2023-04-16T22:39:46.732Z,45.41
2023-04-16T22:42:14.902Z,45.67
2023-04-16T22:44:42.854Z,45.67
2023-04-16T22:47:10.793Z,45.89
2023-04-16T22:49:38.827Z,45.92
2023-04-16T22:52:08.107Z,46.18
2023-04-16T22:54:35.941Z,46.00
2023-04-16T22:57:03.961Z,46.13
2023-04-16T22:59:32.272Z,46.16
2023-04-16T23:02:00.192Z,46.47
2023-04-16T23:04:28.428Z,46.44
2023-04-16T23:06:56.942Z,46.64
2023-04-16T23:09:26.163Z,47.07
2023-04-16T23:11:54.211Z,47.02
2023-04-16T23:14:22.374Z,47.05
2023-04-16T23:16:50.353Z,47.22
2023-04-16T23:19:18.509Z,47.18
2023-04-16T23:21:46.368Z,47.09
2023-04-16T23:24:14.189Z,47.05
2023-04-16T23:26:43.603Z,47.10
2023-04-16T23:29:11.647Z,47.36
2023-04-16T23:31:39.636Z,47.78
2023-04-16T23:34:07.820Z,47.91
2023-04-16T23:36:35.653Z,48.06
2023-04-16T23:39:03.526Z,47.80
2023-04-16T23:41:31.711Z,48.22
2023-04-16T23:44:00.901Z,47.93
2023-04-16T23:46:30.083Z,47.99
2023-04-16T23:48:58.199Z,48.51
2023-04-16T23:51:26.302Z,48.51
2023-04-16T23:53:54.172Z,48.32
2023-04-16T23:56:22.342Z,48.78
2023-04-16T23:58:50.227Z,48.95
